createdAt,value
2023-04-26T00:00:02.103Z,5.49
2023-04-26T00:02:34.575Z,5.48
2023-04-26T00:05:04.454Z,5.97
2023-04-26T00:07:32.600Z,5.70
2023-04-26T00:10:00.737Z,5.73
2023-04-26T00:12:29.139Z,5.50
2023-04-26T00:14:56.994Z,5.83
2023-04-26T00:17:25.268Z,5.83
2023-04-26T00:19:53.380Z,5.73
2023-04-26T00:22:21.279Z,5.83
2023-04-26T00:24:49.006Z,5.84
2023-04-26T00:27:17.720Z,6.01
2023-04-26T00:29:45.590Z,6.09
2023-04-26T00:32:13.409Z,6.34
2023-04-26T00:34:41.345Z,5.88
2023-04-26T00:37:09.109Z,6.35
2023-04-26T00:39:36.899Z,6.22
2023-04-26T00:42:04.688Z,5.64
2023-04-26T00:44:32.711Z,6.33
2023-04-26T00:47:01.892Z,6.53
2023-04-26T00:49:29.815Z,6.31
2023-04-26T00:51:59.158Z,6.26
2023-04-26T00:54:27.643Z,6.55
2023-04-26T00:56:55.651Z,6.29
2023-04-26T00:59:24.548Z,6.68
2023-04-26T01:01:52.855Z,6.71
2023-04-26T01:04:21.457Z,6.79
2023-04-26T01:06:49.686Z,7.01
2023-04-26T01:09:19.215Z,6.56
2023-04-26T01:11:48.349Z,6.99
2023-04-26T01:14:16.821Z,6.83
2023-04-26T01:16:47.201Z,6.96
2023-04-26T01:19:15.421Z,7.33
2023-04-26T01:21:44.278Z,7.15
2023-04-26T01:24:13.723Z,7.26
2023-04-26T01:26:48.619Z,7.49
2023-04-26T01:29:21.536Z,6.98
2023-04-26T01:31:50.199Z,7.30
2023-04-26T01:34:17.873Z,7.40
2023-04-26T01:36:47.281Z,7.44
2023-04-26T01:39:15.168Z,7.39
2023-04-26T01:41:43.773Z,7.80
2023-04-26T01:44:12.010Z,7.95
2023-04-26T01:46:39.839Z,7.52
2023-04-26T01:49:07.923Z,8.04
2023-04-26T01:51:36.371Z,7.88
2023-04-26T01:54:04.342Z,7.92
2023-04-26T01:56:33.165Z,7.89
2023-04-26T01:59:02.270Z,7.74
2023-04-26T02:01:31.728Z,8.10
2023-04-26T02:03:59.569Z,7.78
2023-04-26T02:06:28.056Z,7.74
2023-04-26T02:08:57.071Z,8.18
2023-04-26T02:11:24.886Z,7.78
2023-04-26T02:13:53.583Z,8.09
2023-04-26T02:16:22.571Z,8.08
2023-04-26T02:18:50.643Z,8.59
2023-04-26T02:21:19.393Z,8.41
2023-04-26T02:23:47.958Z,8.88
2023-04-26T02:26:16.459Z,8.51
2023-04-26T02:28:45.238Z,8.61
2023-04-26T02:31:14.734Z,8.48
2023-04-26T02:33:43.017Z,8.82
2023-04-26T02:36:11.046Z,8.62
2023-04-26T02:38:38.826Z,9.06
2023-04-26T02:41:06.692Z,9.25
2023-04-26T02:43:35.052Z,8.78
2023-04-26T02:46:03.139Z,8.73
2023-04-26T02:48:32.287Z,8.94
2023-04-26T02:51:00.592Z,8.66
2023-04-26T02:53:28.562Z,8.81
2023-04-26T02:55:56.607Z,8.72
2023-04-26T02:58:24.447Z,8.97
2023-04-26T03:00:52.364Z,8.49
2023-04-26T03:03:20.592Z,8.77
2023-04-26T03:05:48.394Z,8.71
2023-04-26T03:08:16.517Z,9.10
2023-04-26T03:10:46.660Z,8.83
2023-04-26T03:13:15.245Z,8.54
2023-04-26T03:15:47.382Z,8.44
2023-04-26T03:18:15.949Z,8.91
2023-04-26T03:20:44.058Z,8.88
2023-04-26T03:23:11.999Z,9.36
2023-04-26T03:25:40.476Z,8.48
2023-04-26T03:28:08.687Z,9.04
2023-04-26T03:30:37.248Z,8.60
2023-04-26T03:33:06.213Z,8.57
2023-04-26T03:35:34.226Z,8.60
2023-04-26T03:38:02.432Z,8.93
2023-04-26T03:40:30.633Z,9.32
2023-04-26T03:42:59.156Z,8.97
2023-04-26T03:45:27.018Z,9.41
2023-04-26T03:47:55.151Z,9.05
2023-04-26T03:50:23.777Z,9.43
2023-04-26T03:52:52.392Z,9.43
2023-04-26T03:55:20.115Z,9.74
2023-04-26T03:57:49.117Z,9.55
2023-04-26T04:00:16.954Z,10.05
2023-04-26T04:02:45.608Z,9.60
2023-04-26T04:05:22.495Z,10.09
2023-04-26T04:07:50.329Z,9.66
2023-04-26T04:10:18.318Z,10.18
2023-04-26T04:12:46.802Z,10.14
2023-04-26T04:15:14.803Z,10.03
2023-04-26T04:17:46.941Z,9.77
2023-04-26T04:20:15.756Z,10.24
2023-04-26T04:22:44.057Z,10.19
2023-04-26T04:25:12.014Z,10.14
2023-04-26T04:27:45.257Z,10.01
2023-04-26T04:30:14.800Z,10.33
2023-04-26T04:32:46.778Z,10.40
2023-04-26T04:35:15.954Z,10.16
2023-04-26T04:37:44.173Z,9.90
2023-04-26T04:40:13.466Z,10.23
2023-04-26T04:42:45.420Z,10.16
2023-04-26T04:45:14.920Z,10.12
2023-04-26T04:47:44.185Z,9.54
2023-04-26T04:50:12.295Z,9.59
2023-04-26T04:52:40.442Z,9.01
2023-04-26T04:55:09.121Z,9.42
2023-04-26T04:57:40.700Z,9.64
2023-04-26T05:00:12.763Z,9.46
2023-04-26T05:03:01.329Z,10.15
2023-04-26T05:05:29.555Z,9.71
2023-04-26T05:07:57.388Z,9.65
2023-04-26T05:10:25.162Z,9.62
2023-04-26T05:12:54.137Z,9.84
2023-04-26T05:15:21.998Z,9.78
2023-04-26T05:17:50.354Z,10.01
2023-04-26T05:20:22.697Z,10.56
2023-04-26T05:22:51.352Z,9.99
2023-04-26T05:25:20.257Z,10.66
2023-04-26T05:27:52.718Z,10.48
2023-04-26T05:30:35.434Z,10.27
2023-04-26T05:33:26.825Z,10.25
2023-04-26T05:36:09.985Z,10.24
2023-04-26T05:38:38.252Z,10.35
2023-04-26T05:41:06.518Z,10.01
2023-04-26T05:43:34.615Z,10.38
2023-04-26T05:46:02.542Z,10.30
2023-04-26T05:48:30.494Z,10.26
2023-04-26T05:50:58.319Z,10.05
2023-04-26T05:53:26.754Z,10.30
2023-04-26T05:55:54.727Z,10.23
2023-04-26T05:58:23.143Z,10.45
2023-04-26T06:00:51.387Z,10.68
2023-04-26T06:03:19.777Z,10.08
2023-04-26T06:05:47.971Z,9.88
2023-04-26T06:08:16.202Z,10.12
2023-04-26T06:10:44.890Z,10.45
2023-04-26T06:13:13.078Z,10.42
2023-04-26T06:15:41.252Z,9.85
2023-04-26T06:18:09.341Z,10.05
2023-04-26T06:20:37.289Z,10.06
2023-04-26T06:23:07.894Z,9.97
2023-04-26T06:25:37.191Z,10.01
2023-04-26T06:28:05.590Z,9.96
2023-04-26T06:30:33.418Z,10.42
2023-04-26T06:33:01.590Z,10.65
2023-04-26T06:35:31.802Z,10.50
2023-04-26T06:38:00.296Z,10.29
2023-04-26T06:40:28.286Z,10.06
2023-04-26T06:42:57.332Z,9.73
2023-04-26T06:45:25.518Z,9.54
2023-04-26T06:47:53.566Z,9.43
2023-04-26T06:50:24.883Z,9.77
2023-04-26T06:52:52.768Z,9.52
2023-04-26T06:55:20.624Z,9.02
2023-04-26T06:57:48.650Z,9.01
2023-04-26T07:00:18.777Z,9.05
2023-04-26T07:02:46.697Z,8.27
2023-04-26T07:05:15.609Z,8.12
2023-04-26T07:07:43.756Z,7.97
2023-04-26T07:10:12.011Z,8.36
2023-04-26T07:12:39.870Z,8.92
2023-04-26T07:15:09.546Z,8.70
2023-04-26T07:17:37.416Z,8.66
2023-04-26T07:20:05.967Z,7.98
2023-04-26T07:22:33.750Z,7.80
2023-04-26T07:25:02.024Z,7.06
2023-04-26T07:27:30.433Z,6.30
2023-04-26T07:29:58.438Z,5.24
2023-04-26T07:32:26.340Z,4.89
2023-04-26T07:34:54.371Z,5.16
2023-04-26T07:37:22.186Z,5.38
2023-04-26T07:39:50.133Z,4.50
2023-04-26T07:42:17.977Z,4.69
2023-04-26T07:44:47.727Z,4.13
2023-04-26T07:47:16.059Z,3.98
2023-04-26T07:49:45.265Z,4.12
2023-04-26T07:52:14.267Z,4.10
2023-04-26T07:54:42.184Z,4.38
2023-04-26T07:57:10.054Z,4.69
2023-04-26T07:59:38.094Z,4.82
2023-04-26T08:02:06.797Z,4.21
2023-04-26T08:04:35.838Z,4.71
2023-04-26T08:07:03.987Z,4.84
2023-04-26T08:09:32.238Z,4.52
2023-04-26T08:12:00.420Z,4.64
2023-04-26T08:14:29.987Z,4.78
2023-04-26T08:16:58.135Z,4.23
2023-04-26T08:19:26.956Z,4.36
2023-04-26T08:21:54.887Z,4.31
2023-04-26T08:24:23.190Z,4.40
2023-04-26T08:26:51.341Z,4.34
2023-04-26T08:29:19.460Z,4.31
2023-04-26T08:31:47.296Z,4.89
2023-04-26T08:34:15.096Z,6.01
2023-04-26T08:36:42.986Z,5.93
2023-04-26T08:39:12.528Z,5.64
2023-04-26T08:42:05.749Z,5.64
2023-04-26T08:44:36.804Z,5.99
2023-04-26T08:47:16.259Z,5.81
2023-04-26T08:49:44.687Z,5.37
2023-04-26T08:52:16.100Z,5.26
2023-04-26T08:54:45.103Z,5.76
2023-04-26T08:57:14.116Z,6.19
2023-04-26T08:59:44.670Z,6.25
2023-04-26T09:02:19.367Z,7.10
2023-04-26T09:04:48.466Z,7.12
2023-04-26T09:07:32.499Z,6.46
2023-04-26T09:10:01.321Z,6.61
2023-04-26T09:12:29.193Z,6.55
2023-04-26T09:14:57.157Z,6.51
2023-04-26T09:17:29.512Z,6.53
2023-04-26T09:19:58.560Z,5.97
2023-04-26T09:22:34.465Z,5.80
2023-04-26T09:25:04.451Z,6.26
2023-04-26T09:27:38.795Z,6.26
2023-04-26T09:30:10.796Z,6.17
2023-04-26T09:32:59.389Z,5.37
2023-04-26T09:35:30.611Z,5.89
2023-04-26T09:38:08.662Z,5.71
2023-04-26T09:40:45.496Z,5.30
2023-04-26T09:43:15.721Z,5.32
2023-04-26T09:45:58.029Z,5.44
2023-04-26T09:48:34.595Z,5.16
2023-04-26T09:51:12.499Z,5.25
2023-04-26T09:54:14.081Z,5.43
2023-04-26T09:57:01.847Z,5.12
2023-04-26T09:59:43.394Z,5.67
2023-04-26T10:02:31.255Z,5.47
2023-04-26T10:05:00.464Z,5.45
2023-04-26T10:07:30.426Z,5.19
2023-04-26T10:09:58.902Z,5.35
2023-04-26T10:12:27.583Z,5.56
2023-04-26T10:14:58.115Z,5.65
2023-04-26T10:17:26.077Z,5.46
2023-04-26T10:20:00.076Z,5.34
2023-04-26T10:22:33.962Z,5.10
2023-04-26T10:25:01.938Z,5.18
2023-04-26T10:27:45.312Z,5.15
2023-04-26T10:30:19.463Z,4.86
2023-04-26T10:32:53.535Z,4.85
2023-04-26T10:35:22.136Z,4.83
2023-04-26T10:38:02.244Z,5.10
2023-04-26T10:40:39.577Z,5.08
2023-04-26T10:43:10.309Z,4.87
2023-04-26T10:45:39.617Z,4.86
2023-04-26T10:48:22.569Z,4.10
2023-04-26T10:51:04.919Z,4.21
2023-04-26T10:53:49.013Z,4.10
2023-04-26T10:56:32.068Z,3.98
2023-04-26T11:01:46.436Z,3.68
2023-04-26T11:04:14.681Z,4.04
2023-04-26T11:06:58.099Z,4.04
2023-04-26T11:09:48.277Z,4.10
2023-04-26T11:12:16.962Z,4.12
2023-04-26T11:14:46.369Z,4.18
2023-04-26T11:17:14.309Z,4.45
2023-04-26T11:19:42.602Z,4.23
2023-04-26T11:22:11.329Z,4.55
2023-04-26T11:24:39.283Z,4.39
2023-04-26T11:27:11.575Z,4.91
2023-04-26T11:29:39.671Z,4.47
2023-04-26T11:32:08.591Z,4.77
2023-04-26T11:34:39.318Z,5.05
2023-04-26T11:37:08.892Z,5.41
2023-04-26T11:39:37.434Z,5.15
2023-04-26T11:42:12.945Z,5.31
2023-04-26T11:44:42.017Z,5.00
2023-04-26T11:47:10.503Z,5.16
2023-04-26T11:49:39.048Z,5.34
2023-04-26T11:52:08.508Z,5.25
2023-04-26T11:54:38.215Z,5.17
2023-04-26T11:57:17.756Z,5.25
2023-04-26T11:59:46.905Z,5.59
2023-04-26T12:02:14.793Z,5.24
2023-04-26T12:04:44.385Z,5.33
2023-04-26T12:07:12.289Z,5.09
2023-04-26T12:09:42.944Z,5.29
2023-04-26T12:12:12.290Z,5.52
2023-04-26T12:14:41.026Z,5.13
2023-04-26T12:17:10.483Z,5.44
2023-04-26T12:19:40.728Z,5.75
2023-04-26T12:22:09.859Z,5.31
2023-04-26T12:24:37.974Z,5.44
2023-04-26T12:27:07.250Z,5.79
2023-04-26T12:29:35.746Z,5.93
2023-04-26T12:32:04.484Z,6.01
2023-04-26T12:34:32.458Z,5.77
2023-04-26T12:37:00.731Z,5.82
2023-04-26T12:39:28.577Z,5.34
2023-04-26T12:41:56.370Z,5.61
2023-04-26T12:44:24.098Z,5.52
2023-04-26T12:46:51.838Z,5.39
2023-04-26T12:49:19.858Z,5.44
2023-04-26T12:51:47.578Z,5.76
2023-04-26T12:54:15.584Z,5.24
2023-04-26T12:56:46.775Z,5.32
2023-04-26T12:59:15.076Z,5.10
2023-04-26T13:01:42.822Z,5.39
2023-04-26T13:04:11.062Z,5.61
2023-04-26T13:06:39.263Z,5.81
2023-04-26T13:09:08.408Z,5.77
2023-04-26T13:11:36.470Z,6.06
2023-04-26T13:14:04.325Z,5.67
2023-04-26T13:16:32.680Z,5.83
2023-04-26T13:19:01.562Z,5.67
2023-04-26T13:21:29.651Z,5.52
2023-04-26T13:23:57.460Z,5.76
2023-04-26T13:26:27.095Z,5.56
2023-04-26T13:28:56.227Z,6.15
2023-04-26T13:31:24.418Z,6.45
2023-04-26T13:33:52.202Z,6.56
2023-04-26T13:36:20.173Z,6.57
2023-04-26T13:38:47.990Z,6.51
2023-04-26T13:41:16.541Z,6.83
2023-04-26T13:43:44.548Z,7.09
2023-04-26T13:46:12.916Z,6.87
2023-04-26T13:48:41.394Z,7.23
2023-04-26T13:51:09.236Z,7.16
2023-04-26T13:53:36.987Z,7.31
2023-04-26T13:56:04.972Z,7.37
2023-04-26T13:58:32.830Z,7.72
2023-04-26T14:01:00.748Z,7.44
2023-04-26T14:03:28.838Z,7.34
2023-04-26T14:05:56.829Z,7.92
2023-04-26T14:08:24.983Z,7.84
2023-04-26T14:10:53.298Z,8.09
2023-04-26T14:13:21.347Z,8.27
2023-04-26T14:15:49.594Z,8.54
2023-04-26T14:18:18.126Z,8.21
2023-04-26T14:20:46.695Z,8.07
2023-04-26T14:23:14.622Z,8.94
2023-04-26T14:25:42.628Z,8.71
2023-04-26T14:28:10.545Z,8.76
2023-04-26T14:30:38.610Z,9.26
2023-04-26T14:33:06.585Z,9.09
2023-04-26T14:35:34.599Z,9.34
2023-04-26T14:38:02.556Z,9.39
2023-04-26T14:40:30.627Z,9.92
2023-04-26T14:42:58.690Z,9.75
2023-04-26T14:45:37.040Z,9.71
2023-04-26T14:48:14.860Z,9.81
2023-04-26T14:50:43.097Z,9.69
2023-04-26T14:53:11.134Z,9.74
2023-04-26T14:55:39.041Z,10.41
2023-04-26T14:58:07.023Z,9.31
2023-04-26T15:00:34.762Z,9.95
2023-04-26T15:03:03.129Z,9.96
2023-04-26T15:05:31.959Z,9.53
2023-04-26T15:07:59.742Z,9.51
2023-04-26T15:10:27.655Z,9.18
2023-04-26T15:12:56.678Z,9.18
2023-04-26T15:15:24.474Z,9.35
2023-04-26T15:17:52.910Z,8.95
2023-04-26T15:20:20.797Z,8.95
2023-04-26T15:22:49.027Z,9.18
2023-04-26T15:25:17.384Z,9.25
2023-04-26T15:27:46.952Z,8.99
2023-04-26T15:30:14.866Z,8.24
2023-04-26T15:32:43.245Z,8.24
2023-04-26T15:35:15.499Z,9.04
2023-04-26T15:37:44.254Z,8.62
2023-04-26T15:40:12.647Z,8.51
2023-04-26T15:42:40.330Z,8.64
2023-04-26T15:45:08.635Z,8.90
2023-04-26T15:47:37.242Z,8.23
2023-04-26T15:50:06.054Z,7.87
2023-04-26T15:52:39.264Z,8.02
2023-04-26T15:55:07.842Z,7.82
2023-04-26T15:57:35.639Z,7.92
2023-04-26T16:00:05.916Z,10.19
2023-04-26T16:02:35.368Z,10.83
2023-04-26T16:05:04.649Z,7.88
2023-04-26T16:07:33.039Z,8.47
2023-04-26T16:10:01.567Z,11.38
2023-04-26T16:12:29.441Z,10.76
2023-04-26T16:14:58.569Z,9.07
2023-04-26T16:17:26.360Z,10.10
2023-04-26T16:19:54.044Z,8.61
2023-04-26T16:22:22.144Z,8.50
2023-04-26T16:24:49.903Z,7.76
2023-04-26T16:27:17.966Z,7.73
2023-04-26T16:29:47.708Z,8.15
2023-04-26T16:32:15.808Z,11.15
2023-04-26T16:34:43.690Z,9.52
2023-04-26T16:37:12.865Z,12.66
2023-04-26T16:39:41.109Z,10.62
2023-04-26T16:42:08.923Z,9.85
2023-04-26T16:44:36.777Z,9.30
2023-04-26T16:47:04.726Z,9.02
2023-04-26T16:49:32.812Z,9.33
2023-04-26T16:52:01.468Z,9.60
2023-04-26T16:54:29.365Z,10.07
2023-04-26T16:56:58.371Z,10.40
2023-04-26T16:59:26.700Z,11.61
2023-04-26T17:01:55.628Z,10.90
2023-04-26T17:04:23.745Z,9.52
2023-04-26T17:06:51.742Z,9.22
2023-04-26T17:09:20.002Z,9.07
2023-04-26T17:11:47.792Z,9.44
2023-04-26T17:14:15.752Z,9.40
2023-04-26T17:16:43.582Z,9.15
2023-04-26T17:19:11.511Z,9.00
2023-04-26T17:21:39.393Z,9.64
2023-04-26T17:24:07.762Z,10.28
2023-04-26T17:26:35.731Z,9.10
2023-04-26T17:29:03.636Z,10.01
2023-04-26T17:31:31.691Z,11.35
2023-04-26T17:33:59.399Z,9.56
2023-04-26T17:36:28.013Z,9.56
2023-04-26T17:38:55.975Z,10.76
2023-04-26T17:41:23.804Z,9.96
2023-04-26T17:43:51.809Z,10.80
2023-04-26T17:46:19.627Z,10.29
2023-04-26T17:48:47.396Z,11.41
2023-04-26T17:51:16.935Z,11.15
2023-04-26T17:53:44.626Z,11.30
2023-04-26T17:56:12.691Z,12.81
2023-04-26T17:58:40.480Z,11.25
2023-04-26T18:01:08.240Z,10.91
2023-04-26T18:03:36.573Z,10.94
2023-04-26T18:06:04.748Z,9.57
2023-04-26T18:08:32.803Z,10.90
2023-04-26T18:11:00.815Z,11.84
2023-04-26T18:13:28.625Z,10.08
2023-04-26T18:15:56.779Z,11.61
2023-04-26T18:18:26.426Z,12.24
2023-04-26T18:20:55.383Z,10.22
2023-04-26T18:23:23.147Z,9.98
2023-04-26T18:25:50.935Z,10.67
2023-04-26T18:28:18.912Z,9.97
2023-04-26T18:30:46.755Z,10.03
2023-04-26T18:33:14.774Z,9.61
2023-04-26T18:35:42.889Z,9.42
2023-04-26T18:38:10.757Z,10.20
2023-04-26T18:40:42.702Z,11.16
2023-04-26T18:43:10.562Z,11.00
2023-04-26T18:45:38.455Z,10.46
2023-04-26T18:48:06.881Z,10.71
2023-04-26T18:50:35.463Z,11.63
2023-04-26T18:53:03.455Z,10.45
2023-04-26T18:55:31.399Z,10.38
2023-04-26T18:57:59.121Z,10.30
2023-04-26T19:00:26.847Z,12.11
2023-04-26T19:02:55.025Z,12.33
2023-04-26T19:05:22.991Z,11.76
2023-04-26T19:07:54.374Z,10.86
2023-04-26T19:10:22.417Z,11.43
2023-04-26T19:12:50.178Z,11.93
2023-04-26T19:15:18.088Z,11.16
2023-04-26T19:17:46.769Z,11.51
2023-04-26T19:20:15.316Z,11.33
2023-04-26T19:22:44.809Z,10.45
2023-04-26T19:25:13.948Z,10.55
2023-04-26T19:27:41.913Z,10.90
2023-04-26T19:30:10.051Z,11.23
2023-04-26T19:32:37.956Z,10.61
2023-04-26T19:35:06.338Z,11.02
2023-04-26T19:37:34.315Z,11.13
2023-04-26T19:40:02.405Z,11.31
2023-04-26T19:42:30.326Z,10.22
2023-04-26T19:44:58.207Z,10.22
2023-04-26T19:47:25.992Z,9.70
2023-04-26T19:49:55.577Z,10.17
2023-04-26T19:52:23.359Z,9.47
2023-04-26T19:54:54.470Z,9.70
2023-04-26T19:57:23.286Z,9.92
2023-04-26T19:59:51.158Z,9.94
2023-04-26T20:02:19.140Z,9.25
2023-04-26T20:04:47.181Z,10.20
2023-04-26T20:07:14.991Z,10.33
2023-04-26T20:09:43.604Z,9.69
2023-04-26T20:12:11.492Z,10.03
2023-04-26T20:14:39.415Z,9.86
2023-04-26T20:17:07.343Z,9.32
2023-04-26T20:19:35.753Z,9.40
2023-04-26T20:22:03.858Z,10.37
2023-04-26T20:24:33.272Z,9.70
2023-04-26T20:27:02.191Z,9.42
2023-04-26T20:29:30.064Z,9.55
2023-04-26T20:31:57.796Z,8.98
2023-04-26T20:34:25.831Z,8.69
2023-04-26T20:36:53.515Z,9.26
2023-04-26T20:39:22.004Z,8.80
2023-04-26T20:41:49.801Z,8.71
2023-04-26T20:44:18.035Z,8.71
2023-04-26T20:46:46.068Z,8.81
2023-04-26T20:49:13.878Z,8.91
2023-04-26T20:51:42.019Z,9.04
2023-04-26T20:54:09.971Z,9.65
2023-04-26T20:56:40.355Z,9.49
2023-04-26T20:59:08.419Z,9.66
2023-04-26T21:01:36.506Z,9.54
2023-04-26T21:04:04.670Z,9.35
2023-04-26T21:06:33.745Z,9.10
2023-04-26T21:09:02.008Z,9.07
2023-04-26T21:11:29.694Z,9.54
2023-04-26T21:13:58.471Z,9.42
2023-04-26T21:16:26.835Z,9.56
2023-04-26T21:18:54.841Z,9.46
2023-04-26T21:21:22.922Z,9.44
2023-04-26T21:23:50.647Z,9.65
2023-04-26T21:26:18.395Z,9.98
2023-04-26T21:28:46.451Z,9.59
2023-04-26T21:31:14.342Z,9.90
2023-04-26T21:33:42.227Z,9.43
2023-04-26T21:36:10.118Z,9.83
2023-04-26T21:38:37.813Z,10.03
2023-04-26T21:41:05.598Z,9.57
2023-04-26T21:43:33.450Z,9.46
2023-04-26T21:46:01.341Z,9.32
2023-04-26T21:48:29.183Z,9.56
2023-04-26T21:50:57.120Z,9.98
2023-04-26T21:53:25.051Z,9.67
2023-04-26T21:55:54.173Z,9.44
2023-04-26T21:58:22.576Z,9.61
2023-04-26T22:00:52.193Z,9.08
2023-04-26T22:03:20.265Z,9.40
2023-04-26T22:05:48.163Z,9.61
2023-04-26T22:08:16.378Z,9.52
2023-04-26T22:10:44.278Z,9.70
2023-04-26T22:13:12.003Z,9.46
2023-04-26T22:15:39.746Z,9.68
2023-04-26T22:18:07.772Z,9.63
2023-04-26T22:20:35.819Z,9.61
2023-04-26T22:23:03.560Z,9.71
2023-04-26T22:25:31.733Z,10.03
2023-04-26T22:27:59.417Z,9.55
2023-04-26T22:30:27.564Z,9.39
2023-04-26T22:32:57.937Z,9.97
2023-04-26T22:35:27.663Z,9.99
2023-04-26T22:37:56.396Z,9.34
2023-04-26T22:40:24.208Z,9.44
2023-04-26T22:42:52.075Z,9.90
2023-04-26T22:45:20.180Z,9.83
2023-04-26T22:47:48.009Z,9.94
2023-04-26T22:50:15.865Z,9.86
2023-04-26T22:52:43.757Z,9.39
2023-04-26T22:55:11.658Z,9.83
2023-04-26T22:57:39.420Z,9.69
2023-04-26T23:00:10.256Z,9.97
2023-04-26T23:02:38.237Z,10.08
2023-04-26T23:05:09.680Z,10.25
2023-04-26T23:07:38.579Z,10.51
2023-04-26T23:10:07.176Z,10.75
2023-04-26T23:12:36.230Z,10.48
2023-04-26T23:15:05.632Z,10.71
2023-04-26T23:17:34.276Z,10.20
2023-04-26T23:20:02.277Z,10.50
2023-04-26T23:22:30.047Z,10.82
2023-04-26T23:24:58.038Z,10.28
2023-04-26T23:27:26.330Z,10.47
2023-04-26T23:29:55.004Z,10.83
2023-04-26T23:32:23.903Z,10.74
2023-04-26T23:34:51.766Z,10.85
2023-04-26T23:37:19.748Z,10.74
2023-04-26T23:39:47.619Z,10.87
2023-04-26T23:42:15.478Z,10.74
2023-04-26T23:44:43.203Z,10.76
2023-04-26T23:47:11.106Z,10.91
2023-04-26T23:49:38.915Z,11.07
2023-04-26T23:52:07.290Z,10.72
2023-04-26T23:54:35.153Z,11.14
2023-04-26T23:57:04.191Z,11.06
2023-04-26T23:59:32.250Z,11.13
